sensor_id;sensor_type;location;lat;lon;timestamp;pressure;altitude;pressure_sealevel;temperature
22322;BMP180;11328;53.928;18.522;2023-04-29T00:00:17;100190.00;;;10.00
22322;BMP180;11328;53.928;18.522;2023-04-29T00:02:44;100200.00;;;10.00
22322;BMP180;11328;53.928;18.522;2023-04-29T00:05:11;100195.00;;;10.00
22322;BMP180;11328;53.928;18.522;2023-04-29T00:07:39;100194.00;;;10.00
22322;BMP180;11328;53.928;18.522;2023-04-29T00:10:06;100196.00;;;10.00
22322;BMP180;11328;53.928;18.522;2023-04-29T00:12:33;100193.00;;;10.00
22322;BMP180;11328;53.928;18.522;2023-04-29T00:15:00;100188.00;;;9.90
22322;BMP180;11328;53.928;18.522;2023-04-29T00:17:28;100192.00;;;9.90
22322;BMP180;11328;53.928;18.522;2023-04-29T00:19:56;100198.00;;;9.80
22322;BMP180;11328;53.928;18.522;2023-04-29T00:22:22;100200.00;;;9.80
22322;BMP180;11328;53.928;18.522;2023-04-29T00:24:50;100186.00;;;9.80
22322;BMP180;11328;53.928;18.522;2023-04-29T00:27:17;100183.00;;;9.80
22322;BMP180;11328;53.928;18.522;2023-04-29T00:29:44;100186.00;;;9.80
22322;BMP180;11328;53.928;18.522;2023-04-29T00:32:11;100179.00;;;9.70
22322;BMP180;11328;53.928;18.522;2023-04-29T00:34:38;100180.00;;;9.70
22322;BMP180;11328;53.928;18.522;2023-04-29T00:37:05;100177.00;;;9.70
22322;BMP180;11328;53.928;18.522;2023-04-29T00:39:33;100179.00;;;9.60
22322;BMP180;11328;53.928;18.522;2023-04-29T00:42:00;100173.00;;;9.60
22322;BMP180;11328;53.928;18.522;2023-04-29T00:44:29;100161.00;;;9.60
22322;BMP180;11328;53.928;18.522;2023-04-29T00:46:56;100159.00;;;9.60
22322;BMP180;11328;53.928;18.522;2023-04-29T00:49:23;100159.00;;;9.50
22322;BMP180;11328;53.928;18.522;2023-04-29T00:51:50;100154.00;;;9.50
22322;BMP180;11328;53.928;18.522;2023-04-29T00:54:17;100147.00;;;9.40
22322;BMP180;11328;53.928;18.522;2023-04-29T00:56:45;100148.00;;;9.50
22322;BMP180;11328;53.928;18.522;2023-04-29T00:59:13;100151.00;;;9.50
22322;BMP180;11328;53.928;18.522;2023-04-29T01:01:42;100138.00;;;9.50
22322;BMP180;11328;53.928;18.522;2023-04-29T01:04:10;100148.00;;;9.40
22322;BMP180;11328;53.928;18.522;2023-04-29T01:12:37;100136.00;;;9.40
22322;BMP180;11328;53.928;18.522;2023-04-29T01:15:22;100122.00;;;9.40
22322;BMP180;11328;53.928;18.522;2023-04-29T01:18:10;100131.00;;;9.40
22322;BMP180;11328;53.928;18.522;2023-04-29T01:20:39;100130.00;;;9.40
22322;BMP180;11328;53.928;18.522;2023-04-29T01:23:07;100132.00;;;9.50
22322;BMP180;11328;53.928;18.522;2023-04-29T01:25:34;100130.00;;;9.50
22322;BMP180;11328;53.928;18.522;2023-04-29T01:31:02;100138.00;;;9.50
22322;BMP180;11328;53.928;18.522;2023-04-29T01:39:45;100116.00;;;9.50
22322;BMP180;11328;53.928;18.522;2023-04-29T01:45:04;100122.00;;;9.40
22322;BMP180;11328;53.928;18.522;2023-04-29T01:47:32;100118.00;;;9.40
22322;BMP180;11328;53.928;18.522;2023-04-29T01:49:59;100116.00;;;9.40
22322;BMP180;11328;53.928;18.522;2023-04-29T01:52:28;100116.00;;;9.30
22322;BMP180;11328;53.928;18.522;2023-04-29T01:54:55;100116.00;;;9.30
22322;BMP180;11328;53.928;18.522;2023-04-29T01:57:22;100117.00;;;9.30
22322;BMP180;11328;53.928;18.522;2023-04-29T01:59:49;100113.00;;;9.30
22322;BMP180;11328;53.928;18.522;2023-04-29T02:02:16;100114.00;;;9.30
22322;BMP180;11328;53.928;18.522;2023-04-29T02:04:47;100121.00;;;9.30
22322;BMP180;11328;53.928;18.522;2023-04-29T02:07:16;100104.00;;;9.20
22322;BMP180;11328;53.928;18.522;2023-04-29T02:09:43;100110.00;;;9.10
22322;BMP180;11328;53.928;18.522;2023-04-29T02:12:10;100103.00;;;9.10
22322;BMP180;11328;53.928;18.522;2023-04-29T02:14:37;100097.00;;;9.10
22322;BMP180;11328;53.928;18.522;2023-04-29T02:17:04;100103.00;;;9.00
22322;BMP180;11328;53.928;18.522;2023-04-29T02:19:31;100096.00;;;9.00
22322;BMP180;11328;53.928;18.522;2023-04-29T02:21:58;100094.00;;;9.00
22322;BMP180;11328;53.928;18.522;2023-04-29T02:24:25;100078.00;;;9.00
22322;BMP180;11328;53.928;18.522;2023-04-29T02:26:52;100090.00;;;8.90
22322;BMP180;11328;53.928;18.522;2023-04-29T02:29:19;100091.00;;;8.90
22322;BMP180;11328;53.928;18.522;2023-04-29T02:31:46;99982.00;;;8.90
22322;BMP180;11328;53.928;18.522;2023-04-29T02:34:13;100083.00;;;8.90
22322;BMP180;11328;53.928;18.522;2023-04-29T02:36:40;100086.00;;;8.80
22322;BMP180;11328;53.928;18.522;2023-04-29T02:39:07;100087.00;;;8.80
22322;BMP180;11328;53.928;18.522;2023-04-29T02:41:34;100083.00;;;8.80
22322;BMP180;11328;53.928;18.522;2023-04-29T02:44:01;100082.00;;;8.80
22322;BMP180;11328;53.928;18.522;2023-04-29T02:46:28;100083.00;;;8.90
22322;BMP180;11328;53.928;18.522;2023-04-29T02:48:55;100079.00;;;8.80
22322;BMP180;11328;53.928;18.522;2023-04-29T02:51:22;100080.00;;;8.80
22322;BMP180;11328;53.928;18.522;2023-04-29T02:53:48;100077.00;;;8.90
22322;BMP180;11328;53.928;18.522;2023-04-29T02:56:16;100074.00;;;8.90
22322;BMP180;11328;53.928;18.522;2023-04-29T02:58:43;100068.00;;;8.90
22322;BMP180;11328;53.928;18.522;2023-04-29T03:01:09;100068.00;;;8.90
22322;BMP180;11328;53.928;18.522;2023-04-29T03:03:37;100063.00;;;8.90
22322;BMP180;11328;53.928;18.522;2023-04-29T03:06:05;100062.00;;;8.90
22322;BMP180;11328;53.928;18.522;2023-04-29T03:08:32;100065.00;;;8.90
22322;BMP180;11328;53.928;18.522;2023-04-29T03:10:59;100069.00;;;8.90
22322;BMP180;11328;53.928;18.522;2023-04-29T03:13:26;100066.00;;;8.90
22322;BMP180;11328;53.928;18.522;2023-04-29T03:15:53;100065.00;;;9.00
22322;BMP180;11328;53.928;18.522;2023-04-29T03:18:20;100068.00;;;9.10
22322;BMP180;11328;53.928;18.522;2023-04-29T03:20:47;100079.00;;;9.20
22322;BMP180;11328;53.928;18.522;2023-04-29T03:23:14;100075.00;;;9.20
22322;BMP180;11328;53.928;18.522;2023-04-29T03:25:41;100079.00;;;9.30
22322;BMP180;11328;53.928;18.522;2023-04-29T03:28:08;100080.00;;;9.30
22322;BMP180;11328;53.928;18.522;2023-04-29T03:30:35;100076.00;;;9.20
22322;BMP180;11328;53.928;18.522;2023-04-29T03:33:02;100085.00;;;9.20
22322;BMP180;11328;53.928;18.522;2023-04-29T03:35:29;100067.00;;;9.30
22322;BMP180;11328;53.928;18.522;2023-04-29T03:37:56;100075.00;;;9.30
22322;BMP180;11328;53.928;18.522;2023-04-29T03:40:23;100081.00;;;9.30
22322;BMP180;11328;53.928;18.522;2023-04-29T03:42:50;100081.00;;;9.40
22322;BMP180;11328;53.928;18.522;2023-04-29T03:45:17;100082.00;;;9.40
22322;BMP180;11328;53.928;18.522;2023-04-29T03:47:44;100073.00;;;9.50
22322;BMP180;11328;53.928;18.522;2023-04-29T03:50:11;100077.00;;;9.60
22322;BMP180;11328;53.928;18.522;2023-04-29T03:52:38;100065.00;;;9.70
22322;BMP180;11328;53.928;18.522;2023-04-29T03:55:05;100079.00;;;9.60
22322;BMP180;11328;53.928;18.522;2023-04-29T03:57:33;100088.00;;;9.80
22322;BMP180;11328;53.928;18.522;2023-04-29T04:00:00;100073.00;;;9.80
22322;BMP180;11328;53.928;18.522;2023-04-29T04:02:26;100069.00;;;9.80
22322;BMP180;11328;53.928;18.522;2023-04-29T04:04:54;100062.00;;;9.80
22322;BMP180;11328;53.928;18.522;2023-04-29T04:07:21;100066.00;;;9.80
22322;BMP180;11328;53.928;18.522;2023-04-29T04:09:48;100068.00;;;9.80
22322;BMP180;11328;53.928;18.522;2023-04-29T04:12:15;100069.00;;;9.90
22322;BMP180;11328;53.928;18.522;2023-04-29T04:14:42;100066.00;;;9.90
22322;BMP180;11328;53.928;18.522;2023-04-29T04:17:09;100069.00;;;9.90
22322;BMP180;11328;53.928;18.522;2023-04-29T04:19:36;100068.00;;;9.80
22322;BMP180;11328;53.928;18.522;2023-04-29T04:22:03;100060.00;;;9.80
22322;BMP180;11328;53.928;18.522;2023-04-29T04:24:30;100047.00;;;9.80
22322;BMP180;11328;53.928;18.522;2023-04-29T04:26:57;100058.00;;;9.70
22322;BMP180;11328;53.928;18.522;2023-04-29T04:29:24;100054.00;;;9.70
22322;BMP180;11328;53.928;18.522;2023-04-29T04:31:51;100047.00;;;9.60
22322;BMP180;11328;53.928;18.522;2023-04-29T04:34:18;100059.00;;;9.70
22322;BMP180;11328;53.928;18.522;2023-04-29T04:36:45;100062.00;;;9.60
22322;BMP180;11328;53.928;18.522;2023-04-29T04:39:12;100065.00;;;9.70
22322;BMP180;11328;53.928;18.522;2023-04-29T04:41:39;100064.00;;;9.80
22322;BMP180;11328;53.928;18.522;2023-04-29T04:44:06;100070.00;;;9.80
22322;BMP180;11328;53.928;18.522;2023-04-29T04:46:33;100066.00;;;9.80
22322;BMP180;11328;53.928;18.522;2023-04-29T04:49:00;100063.00;;;9.70
22322;BMP180;11328;53.928;18.522;2023-04-29T04:51:27;100064.00;;;9.70
22322;BMP180;11328;53.928;18.522;2023-04-29T04:53:54;100067.00;;;9.70
22322;BMP180;11328;53.928;18.522;2023-04-29T04:56:21;100073.00;;;9.80
22322;BMP180;11328;53.928;18.522;2023-04-29T04:58:48;100059.00;;;9.70
22322;BMP180;11328;53.928;18.522;2023-04-29T05:01:15;100066.00;;;9.80
22322;BMP180;11328;53.928;18.522;2023-04-29T05:03:42;100063.00;;;9.80
22322;BMP180;11328;53.928;18.522;2023-04-29T05:06:10;100068.00;;;9.80
22322;BMP180;11328;53.928;18.522;2023-04-29T05:08:37;100067.00;;;9.80
22322;BMP180;11328;53.928;18.522;2023-04-29T05:11:04;100074.00;;;9.80
22322;BMP180;11328;53.928;18.522;2023-04-29T05:13:32;100063.00;;;9.90
22322;BMP180;11328;53.928;18.522;2023-04-29T05:16:02;100061.00;;;10.00
22322;BMP180;11328;53.928;18.522;2023-04-29T05:18:32;100059.00;;;10.10
22322;BMP180;11328;53.928;18.522;2023-04-29T05:20:59;100064.00;;;10.10
22322;BMP180;11328;53.928;18.522;2023-04-29T05:23:26;100058.00;;;10.20
22322;BMP180;11328;53.928;18.522;2023-04-29T05:25:53;100047.00;;;10.40
22322;BMP180;11328;53.928;18.522;2023-04-29T05:28:21;100063.00;;;10.60
22322;BMP180;11328;53.928;18.522;2023-04-29T05:30:50;100048.00;;;10.60
22322;BMP180;11328;53.928;18.522;2023-04-29T05:33:17;100054.00;;;10.70
22322;BMP180;11328;53.928;18.522;2023-04-29T05:35:44;100054.00;;;10.70
22322;BMP180;11328;53.928;18.522;2023-04-29T05:38:12;100043.00;;;10.80
22322;BMP180;11328;53.928;18.522;2023-04-29T05:40:38;100052.00;;;11.00
22322;BMP180;11328;53.928;18.522;2023-04-29T05:43:06;100050.00;;;11.10
22322;BMP180;11328;53.928;18.522;2023-04-29T05:45:33;100052.00;;;11.20
22322;BMP180;11328;53.928;18.522;2023-04-29T05:48:00;100050.00;;;11.30
22322;BMP180;11328;53.928;18.522;2023-04-29T05:50:27;100049.00;;;11.30
22322;BMP180;11328;53.928;18.522;2023-04-29T05:52:54;100050.00;;;11.40
22322;BMP180;11328;53.928;18.522;2023-04-29T05:55:22;100053.00;;;11.40
22322;BMP180;11328;53.928;18.522;2023-04-29T05:57:49;100050.00;;;11.50
22322;BMP180;11328;53.928;18.522;2023-04-29T06:00:16;100026.00;;;11.50
22322;BMP180;11328;53.928;18.522;2023-04-29T06:02:43;100053.00;;;11.50
22322;BMP180;11328;53.928;18.522;2023-04-29T06:05:25;100050.00;;;11.60
22322;BMP180;11328;53.928;18.522;2023-04-29T06:07:53;100044.00;;;11.60
22322;BMP180;11328;53.928;18.522;2023-04-29T06:10:20;100058.00;;;11.70
22322;BMP180;11328;53.928;18.522;2023-04-29T06:12:46;100054.00;;;11.60
22322;BMP180;11328;53.928;18.522;2023-04-29T06:15:17;100051.00;;;11.60
22322;BMP180;11328;53.928;18.522;2023-04-29T06:17:44;100062.00;;;11.70
22322;BMP180;11328;53.928;18.522;2023-04-29T06:20:11;100067.00;;;11.80
22322;BMP180;11328;53.928;18.522;2023-04-29T06:22:38;100065.00;;;11.80
22322;BMP180;11328;53.928;18.522;2023-04-29T06:25:06;100063.00;;;11.80
22322;BMP180;11328;53.928;18.522;2023-04-29T06:27:33;100068.00;;;11.90
22322;BMP180;11328;53.928;18.522;2023-04-29T06:30:00;100069.00;;;11.80
22322;BMP180;11328;53.928;18.522;2023-04-29T06:32:27;100062.00;;;12.00
22322;BMP180;11328;53.928;18.522;2023-04-29T06:34:54;100078.00;;;12.10
22322;BMP180;11328;53.928;18.522;2023-04-29T06:37:21;100062.00;;;12.10
22322;BMP180;11328;53.928;18.522;2023-04-29T06:39:48;100066.00;;;12.20
22322;BMP180;11328;53.928;18.522;2023-04-29T06:42:15;100061.00;;;12.20
22322;BMP180;11328;53.928;18.522;2023-04-29T06:44:42;100067.00;;;12.30
22322;BMP180;11328;53.928;18.522;2023-04-29T06:47:10;100070.00;;;12.20
22322;BMP180;11328;53.928;18.522;2023-04-29T06:49:37;100068.00;;;12.30
22322;BMP180;11328;53.928;18.522;2023-04-29T06:52:04;100065.00;;;12.30
22322;BMP180;11328;53.928;18.522;2023-04-29T06:54:31;100070.00;;;12.40
22322;BMP180;11328;53.928;18.522;2023-04-29T06:56:58;100076.00;;;12.40
22322;BMP180;11328;53.928;18.522;2023-04-29T06:59:25;100064.00;;;12.40
22322;BMP180;11328;53.928;18.522;2023-04-29T07:01:52;100067.00;;;12.50
22322;BMP180;11328;53.928;18.522;2023-04-29T07:04:19;100066.00;;;12.70
22322;BMP180;11328;53.928;18.522;2023-04-29T07:06:47;100070.00;;;12.80
22322;BMP180;11328;53.928;18.522;2023-04-29T07:09:14;100073.00;;;12.80
22322;BMP180;11328;53.928;18.522;2023-04-29T07:11:41;100081.00;;;13.00
22322;BMP180;11328;53.928;18.522;2023-04-29T07:14:08;100076.00;;;13.20
22322;BMP180;11328;53.928;18.522;2023-04-29T07:16:35;100078.00;;;13.40
22322;BMP180;11328;53.928;18.522;2023-04-29T07:19:02;100076.00;;;13.50
22322;BMP180;11328;53.928;18.522;2023-04-29T07:21:30;100074.00;;;13.50
22322;BMP180;11328;53.928;18.522;2023-04-29T07:23:57;100082.00;;;13.40
22322;BMP180;11328;53.928;18.522;2023-04-29T07:26:26;100055.00;;;13.50
22322;BMP180;11328;53.928;18.522;2023-04-29T07:28:54;99993.00;;;13.60
22322;BMP180;11328;53.928;18.522;2023-04-29T07:31:22;100065.00;;;13.80
22322;BMP180;11328;53.928;18.522;2023-04-29T07:33:49;100066.00;;;13.80
22322;BMP180;11328;53.928;18.522;2023-04-29T07:36:17;100067.00;;;13.80
22322;BMP180;11328;53.928;18.522;2023-04-29T07:38:44;100059.00;;;13.80
22322;BMP180;11328;53.928;18.522;2023-04-29T07:41:11;100064.00;;;13.80
22322;BMP180;11328;53.928;18.522;2023-04-29T07:43:38;100063.00;;;13.80
22322;BMP180;11328;53.928;18.522;2023-04-29T07:46:08;100079.00;;;13.80
22322;BMP180;11328;53.928;18.522;2023-04-29T07:48:38;100061.00;;;13.90
22322;BMP180;11328;53.928;18.522;2023-04-29T07:51:05;100060.00;;;14.00
22322;BMP180;11328;53.928;18.522;2023-04-29T07:53:32;100063.00;;;14.00
22322;BMP180;11328;53.928;18.522;2023-04-29T07:56:05;100065.00;;;14.10
22322;BMP180;11328;53.928;18.522;2023-04-29T07:58:33;100056.00;;;14.10
22322;BMP180;11328;53.928;18.522;2023-04-29T08:01:08;100058.00;;;14.10
22322;BMP180;11328;53.928;18.522;2023-04-29T08:03:36;100060.00;;;14.10
22322;BMP180;11328;53.928;18.522;2023-04-29T08:06:07;100075.00;;;14.20
22322;BMP180;11328;53.928;18.522;2023-04-29T08:08:34;100065.00;;;14.30
22322;BMP180;11328;53.928;18.522;2023-04-29T08:11:01;100057.00;;;14.50
22322;BMP180;11328;53.928;18.522;2023-04-29T08:13:28;100057.00;;;14.50
22322;BMP180;11328;53.928;18.522;2023-04-29T08:15:56;100068.00;;;14.50
22322;BMP180;11328;53.928;18.522;2023-04-29T08:18:24;100065.00;;;14.50
22322;BMP180;11328;53.928;18.522;2023-04-29T08:20:51;100062.00;;;14.60
22322;BMP180;11328;53.928;18.522;2023-04-29T08:23:18;100057.00;;;14.70
22322;BMP180;11328;53.928;18.522;2023-04-29T08:25:46;100049.00;;;14.70
22322;BMP180;11328;53.928;18.522;2023-04-29T08:28:13;100043.00;;;14.70
22322;BMP180;11328;53.928;18.522;2023-04-29T08:30:40;100047.00;;;14.60
22322;BMP180;11328;53.928;18.522;2023-04-29T08:33:07;100059.00;;;14.90
22322;BMP180;11328;53.928;18.522;2023-04-29T08:35:35;100077.00;;;15.00
22322;BMP180;11328;53.928;18.522;2023-04-29T08:38:06;100035.00;;;15.00
22322;BMP180;11328;53.928;18.522;2023-04-29T08:40:35;100067.00;;;15.00
22322;BMP180;11328;53.928;18.522;2023-04-29T08:43:03;100050.00;;;15.10
22322;BMP180;11328;53.928;18.522;2023-04-29T08:45:32;100056.00;;;15.30
22322;BMP180;11328;53.928;18.522;2023-04-29T08:48:02;100058.00;;;15.40
22322;BMP180;11328;53.928;18.522;2023-04-29T08:50:30;100057.00;;;15.60
22322;BMP180;11328;53.928;18.522;2023-04-29T08:52:57;100050.00;;;15.70
22322;BMP180;11328;53.928;18.522;2023-04-29T08:55:26;100058.00;;;15.80
22322;BMP180;11328;53.928;18.522;2023-04-29T08:57:55;100048.00;;;15.90
22322;BMP180;11328;53.928;18.522;2023-04-29T09:00:23;100050.00;;;16.00
22322;BMP180;11328;53.928;18.522;2023-04-29T09:02:55;100052.00;;;16.30
22322;BMP180;11328;53.928;18.522;2023-04-29T09:05:23;100060.00;;;16.50
22322;BMP180;11328;53.928;18.522;2023-04-29T09:07:56;100052.00;;;16.80
22322;BMP180;11328;53.928;18.522;2023-04-29T09:10:25;100061.00;;;16.80
22322;BMP180;11328;53.928;18.522;2023-04-29T09:12:57;100055.00;;;16.80
22322;BMP180;11328;53.928;18.522;2023-04-29T09:15:24;100056.00;;;16.90
22322;BMP180;11328;53.928;18.522;2023-04-29T09:17:51;100060.00;;;17.00
22322;BMP180;11328;53.928;18.522;2023-04-29T09:22:52;100064.00;;;17.20
22322;BMP180;11328;53.928;18.522;2023-04-29T09:25:19;100066.00;;;17.20
22322;BMP180;11328;53.928;18.522;2023-04-29T09:27:47;100070.00;;;17.30
22322;BMP180;11328;53.928;18.522;2023-04-29T09:30:14;100081.00;;;17.40
22322;BMP180;11328;53.928;18.522;2023-04-29T09:32:42;100084.00;;;17.40
22322;BMP180;11328;53.928;18.522;2023-04-29T09:35:25;100066.00;;;17.40
22322;BMP180;11328;53.928;18.522;2023-04-29T09:37:54;100067.00;;;17.50
22322;BMP180;11328;53.928;18.522;2023-04-29T09:40:33;100082.00;;;17.60
22322;BMP180;11328;53.928;18.522;2023-04-29T09:43:17;100069.00;;;17.60
22322;BMP180;11328;53.928;18.522;2023-04-29T09:45:47;100086.00;;;17.60
22322;BMP180;11328;53.928;18.522;2023-04-29T09:48:15;100088.00;;;17.50
22322;BMP180;11328;53.928;18.522;2023-04-29T09:50:43;100090.00;;;17.40
22322;BMP180;11328;53.928;18.522;2023-04-29T09:53:27;100081.00;;;17.30
22322;BMP180;11328;53.928;18.522;2023-04-29T09:56:01;100080.00;;;17.10
22322;BMP180;11328;53.928;18.522;2023-04-29T09:58:34;100077.00;;;17.00
22322;BMP180;11328;53.928;18.522;2023-04-29T10:01:04;100085.00;;;17.00
22322;BMP180;11328;53.928;18.522;2023-04-29T10:03:34;100046.00;;;16.80
22322;BMP180;11328;53.928;18.522;2023-04-29T10:06:05;100070.00;;;16.70
22322;BMP180;11328;53.928;18.522;2023-04-29T10:08:33;100075.00;;;16.80
22322;BMP180;11328;53.928;18.522;2023-04-29T10:11:04;100084.00;;;17.00
22322;BMP180;11328;53.928;18.522;2023-04-29T10:13:34;100088.00;;;17.10
22322;BMP180;11328;53.928;18.522;2023-04-29T10:16:14;100091.00;;;17.40
22322;BMP180;11328;53.928;18.522;2023-04-29T10:19:03;100085.00;;;17.40
22322;BMP180;11328;53.928;18.522;2023-04-29T10:21:30;100075.00;;;17.60
22322;BMP180;11328;53.928;18.522;2023-04-29T10:24:00;100053.00;;;17.80
22322;BMP180;11328;53.928;18.522;2023-04-29T10:26:29;100084.00;;;18.00
22322;BMP180;11328;53.928;18.522;2023-04-29T10:28:59;100080.00;;;18.10
22322;BMP180;11328;53.928;18.522;2023-04-29T10:31:27;100079.00;;;18.10
22322;BMP180;11328;53.928;18.522;2023-04-29T10:33:55;100075.00;;;18.10
22322;BMP180;11328;53.928;18.522;2023-04-29T10:36:28;100074.00;;;18.20
22322;BMP180;11328;53.928;18.522;2023-04-29T10:39:00;100069.00;;;18.30
22322;BMP180;11328;53.928;18.522;2023-04-29T10:41:44;100048.00;;;18.30
22322;BMP180;11328;53.928;18.522;2023-04-29T10:44:13;100061.00;;;18.30
22322;BMP180;11328;53.928;18.522;2023-04-29T10:46:40;100067.00;;;18.30
22322;BMP180;11328;53.928;18.522;2023-04-29T10:49:10;100031.00;;;18.20
22322;BMP180;11328;53.928;18.522;2023-04-29T10:51:42;100057.00;;;18.30
22322;BMP180;11328;53.928;18.522;2023-04-29T10:54:17;100058.00;;;18.10
22322;BMP180;11328;53.928;18.522;2023-04-29T10:56:52;100057.00;;;18.20
22322;BMP180;11328;53.928;18.522;2023-04-29T11:02:14;100049.00;;;18.20
22322;BMP180;11328;53.928;18.522;2023-04-29T11:05:08;100058.00;;;18.10
22322;BMP180;11328;53.928;18.522;2023-04-29T11:07:35;100050.00;;;18.00
22322;BMP180;11328;53.928;18.522;2023-04-29T11:10:05;100050.00;;;17.90
22322;BMP180;11328;53.928;18.522;2023-04-29T11:12:33;100045.00;;;18.00
22322;BMP180;11328;53.928;18.522;2023-04-29T11:15:00;100051.00;;;18.10
22322;BMP180;11328;53.928;18.522;2023-04-29T11:17:36;100047.00;;;18.00
22322;BMP180;11328;53.928;18.522;2023-04-29T11:20:12;100045.00;;;17.90
22322;BMP180;11328;53.928;18.522;2023-04-29T11:22:49;100054.00;;;17.90
22322;BMP180;11328;53.928;18.522;2023-04-29T11:25:17;100049.00;;;18.00
22322;BMP180;11328;53.928;18.522;2023-04-29T11:27:44;100054.00;;;18.00
22322;BMP180;11328;53.928;18.522;2023-04-29T11:30:15;100052.00;;;18.10
22322;BMP180;11328;53.928;18.522;2023-04-29T11:32:43;100057.00;;;18.20
22322;BMP180;11328;53.928;18.522;2023-04-29T11:37:39;100046.00;;;18.10
22322;BMP180;11328;53.928;18.522;2023-04-29T11:40:08;100049.00;;;18.20
22322;BMP180;11328;53.928;18.522;2023-04-29T11:42:46;100058.00;;;18.20
22322;BMP180;11328;53.928;18.522;2023-04-29T11:45:17;100048.00;;;18.20
22322;BMP180;11328;53.928;18.522;2023-04-29T11:47:47;100051.00;;;18.00
22322;BMP180;11328;53.928;18.522;2023-04-29T11:50:16;100043.00;;;17.90
22322;BMP180;11328;53.928;18.522;2023-04-29T11:52:47;100045.00;;;17.80
22322;BMP180;11328;53.928;18.522;2023-04-29T11:55:15;100050.00;;;17.90
22322;BMP180;11328;53.928;18.522;2023-04-29T11:57:42;100045.00;;;18.00
22322;BMP180;11328;53.928;18.522;2023-04-29T12:00:11;100045.00;;;18.00
22322;BMP180;11328;53.928;18.522;2023-04-29T12:02:44;100051.00;;;18.10
22322;BMP180;11328;53.928;18.522;2023-04-29T12:05:13;100044.00;;;18.10
22322;BMP180;11328;53.928;18.522;2023-04-29T12:07:43;100031.00;;;18.00
22322;BMP180;11328;53.928;18.522;2023-04-29T12:10:11;100048.00;;;18.00
22322;BMP180;11328;53.928;18.522;2023-04-29T12:12:39;100046.00;;;18.00
22322;BMP180;11328;53.928;18.522;2023-04-29T12:15:11;100044.00;;;18.00
22322;BMP180;11328;53.928;18.522;2023-04-29T12:17:39;100010.00;;;18.10
22322;BMP180;11328;53.928;18.522;2023-04-29T12:20:07;100041.00;;;18.00
22322;BMP180;11328;53.928;18.522;2023-04-29T12:22:37;100039.00;;;18.00
22322;BMP180;11328;53.928;18.522;2023-04-29T12:25:05;100039.00;;;18.10
22322;BMP180;11328;53.928;18.522;2023-04-29T12:27:39;100027.00;;;18.10
22322;BMP180;11328;53.928;18.522;2023-04-29T12:30:09;100028.00;;;18.20
22322;BMP180;11328;53.928;18.522;2023-04-29T12:32:37;100033.00;;;18.20
22322;BMP180;11328;53.928;18.522;2023-04-29T12:35:15;100025.00;;;18.20
22322;BMP180;11328;53.928;18.522;2023-04-29T12:37:51;100025.00;;;18.10
22322;BMP180;11328;53.928;18.522;2023-04-29T12:40:18;100033.00;;;18.10
22322;BMP180;11328;53.928;18.522;2023-04-29T12:42:47;100033.00;;;18.20
22322;BMP180;11328;53.928;18.522;2023-04-29T12:45:31;100037.00;;;18.30
22322;BMP180;11328;53.928;18.522;2023-04-29T12:47:59;100042.00;;;18.30
22322;BMP180;11328;53.928;18.522;2023-04-29T12:50:32;100042.00;;;18.40
22322;BMP180;11328;53.928;18.522;2023-04-29T12:53:01;100035.00;;;18.30
22322;BMP180;11328;53.928;18.522;2023-04-29T12:55:36;100031.00;;;18.40
22322;BMP180;11328;53.928;18.522;2023-04-29T12:58:05;100026.00;;;18.30
22322;BMP180;11328;53.928;18.522;2023-04-29T13:00:42;100022.00;;;18.30
22322;BMP180;11328;53.928;18.522;2023-04-29T13:03:13;100026.00;;;18.30
22322;BMP180;11328;53.928;18.522;2023-04-29T13:05:41;100021.00;;;18.30
22322;BMP180;11328;53.928;18.522;2023-04-29T13:08:08;100025.00;;;18.30
22322;BMP180;11328;53.928;18.522;2023-04-29T13:10:36;100020.00;;;18.40
22322;BMP180;11328;53.928;18.522;2023-04-29T13:13:03;100024.00;;;18.50
22322;BMP180;11328;53.928;18.522;2023-04-29T13:15:31;100013.00;;;18.40
22322;BMP180;11328;53.928;18.522;2023-04-29T13:17:59;100004.00;;;18.40
22322;BMP180;11328;53.928;18.522;2023-04-29T13:20:26;100011.00;;;18.40
22322;BMP180;11328;53.928;18.522;2023-04-29T13:22:54;100015.00;;;18.40
22322;BMP180;11328;53.928;18.522;2023-04-29T13:25:21;100006.00;;;18.40
22322;BMP180;11328;53.928;18.522;2023-04-29T13:27:48;100015.00;;;18.40
22322;BMP180;11328;53.928;18.522;2023-04-29T13:30:15;100003.00;;;18.30
22322;BMP180;11328;53.928;18.522;2023-04-29T13:32:43;100010.00;;;18.40
22322;BMP180;11328;53.928;18.522;2023-04-29T13:35:21;100003.00;;;18.40
22322;BMP180;11328;53.928;18.522;2023-04-29T13:37:52;100010.00;;;18.50
22322;BMP180;11328;53.928;18.522;2023-04-29T13:40:19;99995.00;;;18.40
22322;BMP180;11328;53.928;18.522;2023-04-29T13:42:48;100006.00;;;18.60
22322;BMP180;11328;53.928;18.522;2023-04-29T13:45:25;100002.00;;;18.50
22322;BMP180;11328;53.928;18.522;2023-04-29T13:47:54;99994.00;;;18.50
22322;BMP180;11328;53.928;18.522;2023-04-29T13:50:34;100002.00;;;18.50
22322;BMP180;11328;53.928;18.522;2023-04-29T13:53:21;100000.00;;;18.50
22322;BMP180;11328;53.928;18.522;2023-04-29T13:55:53;100003.00;;;18.60
22322;BMP180;11328;53.928;18.522;2023-04-29T13:58:23;100004.00;;;18.60
22322;BMP180;11328;53.928;18.522;2023-04-29T14:00:53;100003.00;;;18.50
22322;BMP180;11328;53.928;18.522;2023-04-29T14:03:23;100007.00;;;18.40
22322;BMP180;11328;53.928;18.522;2023-04-29T14:05:51;100012.00;;;18.30
22322;BMP180;11328;53.928;18.522;2023-04-29T14:08:18;100008.00;;;18.30
22322;BMP180;11328;53.928;18.522;2023-04-29T14:10:45;100003.00;;;18.10
22322;BMP180;11328;53.928;18.522;2023-04-29T14:13:13;100009.00;;;17.90
22322;BMP180;11328;53.928;18.522;2023-04-29T14:15:41;100006.00;;;17.80
22322;BMP180;11328;53.928;18.522;2023-04-29T14:18:08;100007.00;;;17.80
22322;BMP180;11328;53.928;18.522;2023-04-29T14:20:37;100007.00;;;17.80
22322;BMP180;11328;53.928;18.522;2023-04-29T14:23:05;100016.00;;;17.80